sensor_id;sensor_type;location;lat;lon;timestamp;P1;durP1;ratioP1;P2;durP2;ratioP2
67902;SDS011;54708;43.612;1.568;2022-12-18T00:01:40;16.48;;;12.23;;
67902;SDS011;54708;43.612;1.568;2022-12-18T00:04:06;20.48;;;13.63;;
67902;SDS011;54708;43.612;1.568;2022-12-18T00:06:33;18.08;;;12.38;;
67902;SDS011;54708;43.612;1.568;2022-12-18T00:09:00;18.63;;;11.82;;
67902;SDS011;54708;43.612;1.568;2022-12-18T00:11:28;19.40;;;11.98;;
67902;SDS011;54708;43.612;1.568;2022-12-18T00:13:56;22.83;;;13.98;;
67902;SDS011;54708;43.612;1.568;2022-12-18T00:16:23;21.73;;;13.95;;
67902;SDS011;54708;43.612;1.568;2022-12-18T00:18:49;20.80;;;13.25;;
67902;SDS011;54708;43.612;1.568;2022-12-18T00:21:16;20.70;;;13.25;;
67902;SDS011;54708;43.612;1.568;2022-12-18T00:23:43;19.17;;;13.75;;
67902;SDS011;54708;43.612;1.568;2022-12-18T00:26:13;15.75;;;11.48;;
67902;SDS011;54708;43.612;1.568;2022-12-18T00:28:40;18.50;;;12.27;;
67902;SDS011;54708;43.612;1.568;2022-12-18T00:31:10;17.20;;;13.15;;
67902;SDS011;54708;43.612;1.568;2022-12-18T00:33:37;20.67;;;12.70;;
67902;SDS011;54708;43.612;1.568;2022-12-18T00:38:29;17.27;;;11.75;;
67902;SDS011;54708;43.612;1.568;2022-12-18T00:40:55;17.58;;;12.80;;
67902;SDS011;54708;43.612;1.568;2022-12-18T00:43:20;21.00;;;13.75;;
67902;SDS011;54708;43.612;1.568;2022-12-18T00:45:46;18.23;;;13.05;;
67902;SDS011;54708;43.612;1.568;2022-12-18T00:48:11;20.70;;;14.02;;
67902;SDS011;54708;43.612;1.568;2022-12-18T00:50:36;16.00;;;12.43;;
67902;SDS011;54708;43.612;1.568;2022-12-18T00:53:02;18.88;;;13.00;;
67902;SDS011;54708;43.612;1.568;2022-12-18T00:55:27;19.85;;;13.05;;
67902;SDS011;54708;43.612;1.568;2022-12-18T00:57:53;21.23;;;13.93;;
67902;SDS011;54708;43.612;1.568;2022-12-18T01:00:18;20.05;;;13.10;;
67902;SDS011;54708;43.612;1.568;2022-12-18T01:02:44;22.13;;;13.20;;
67902;SDS011;54708;43.612;1.568;2022-12-18T01:05:10;17.90;;;13.32;;
67902;SDS011;54708;43.612;1.568;2022-12-18T01:07:37;17.90;;;12.77;;
67902;SDS011;54708;43.612;1.568;2022-12-18T01:10:03;22.75;;;14.30;;
67902;SDS011;54708;43.612;1.568;2022-12-18T01:12:29;21.95;;;13.55;;
67902;SDS011;54708;43.612;1.568;2022-12-18T01:14:54;18.20;;;13.68;;
67902;SDS011;54708;43.612;1.568;2022-12-18T01:17:20;19.80;;;13.48;;
67902;SDS011;54708;43.612;1.568;2022-12-18T01:19:46;21.48;;;13.85;;
67902;SDS011;54708;43.612;1.568;2022-12-18T01:22:11;20.77;;;12.98;;
67902;SDS011;54708;43.612;1.568;2022-12-18T01:24:37;24.05;;;13.60;;
67902;SDS011;54708;43.612;1.568;2022-12-18T01:27:02;20.15;;;12.93;;
67902;SDS011;54708;43.612;1.568;2022-12-18T01:29:27;19.75;;;13.90;;
67902;SDS011;54708;43.612;1.568;2022-12-18T01:31:54;18.70;;;12.90;;
67902;SDS011;54708;43.612;1.568;2022-12-18T01:34:21;17.48;;;12.48;;
67902;SDS011;54708;43.612;1.568;2022-12-18T01:36:47;18.70;;;13.00;;
67902;SDS011;54708;43.612;1.568;2022-12-18T01:39:13;19.92;;;14.93;;
67902;SDS011;54708;43.612;1.568;2022-12-18T01:41:40;20.60;;;12.52;;
67902;SDS011;54708;43.612;1.568;2022-12-18T01:49:56;17.77;;;12.85;;
67902;SDS011;54708;43.612;1.568;2022-12-18T01:52:23;23.40;;;12.40;;
67902;SDS011;54708;43.612;1.568;2022-12-18T01:54:50;16.13;;;11.35;;
67902;SDS011;54708;43.612;1.568;2022-12-18T01:57:16;17.10;;;12.52;;
67902;SDS011;54708;43.612;1.568;2022-12-18T01:59:41;16.00;;;12.23;;
67902;SDS011;54708;43.612;1.568;2022-12-18T02:02:08;19.70;;;12.38;;
67902;SDS011;54708;43.612;1.568;2022-12-18T02:04:33;18.92;;;12.40;;
67902;SDS011;54708;43.612;1.568;2022-12-18T02:09:38;18.73;;;12.88;;
67902;SDS011;54708;43.612;1.568;2022-12-18T02:12:19;16.80;;;11.20;;
67902;SDS011;54708;43.612;1.568;2022-12-18T02:17:36;18.15;;;12.85;;
67902;SDS011;54708;43.612;1.568;2022-12-18T02:20:07;21.02;;;13.45;;
67902;SDS011;54708;43.612;1.568;2022-12-18T02:28:13;41.55;;;21.95;;
67902;SDS011;54708;43.612;1.568;2022-12-18T02:30:40;38.70;;;18.88;;
67902;SDS011;54708;43.612;1.568;2022-12-18T02:33:07;40.35;;;18.15;;
67902;SDS011;54708;43.612;1.568;2022-12-18T02:35:33;30.95;;;17.25;;
67902;SDS011;54708;43.612;1.568;2022-12-18T02:38:00;33.00;;;18.73;;
67902;SDS011;54708;43.612;1.568;2022-12-18T02:40:27;25.35;;;15.88;;
67902;SDS011;54708;43.612;1.568;2022-12-18T02:42:53;27.23;;;17.13;;
67902;SDS011;54708;43.612;1.568;2022-12-18T02:45:18;22.73;;;15.35;;
67902;SDS011;54708;43.612;1.568;2022-12-18T02:47:47;25.88;;;16.60;;
67902;SDS011;54708;43.612;1.568;2022-12-18T02:50:22;25.48;;;14.73;;
67902;SDS011;54708;43.612;1.568;2022-12-18T02:53:15;26.00;;;15.07;;
67902;SDS011;54708;43.612;1.568;2022-12-18T03:00:48;23.77;;;14.40;;
67902;SDS011;54708;43.612;1.568;2022-12-18T03:03:24;25.25;;;15.27;;
67902;SDS011;54708;43.612;1.568;2022-12-18T03:06:05;23.48;;;14.50;;
67902;SDS011;54708;43.612;1.568;2022-12-18T03:08:36;27.15;;;15.63;;
67902;SDS011;54708;43.612;1.568;2022-12-18T03:11:04;26.30;;;15.10;;
67902;SDS011;54708;43.612;1.568;2022-12-18T03:16:11;29.27;;;14.57;;
67902;SDS011;54708;43.612;1.568;2022-12-18T03:18:44;28.52;;;14.75;;
67902;SDS011;54708;43.612;1.568;2022-12-18T03:21:11;26.42;;;15.38;;
67902;SDS011;54708;43.612;1.568;2022-12-18T03:23:49;27.50;;;15.85;;
67902;SDS011;54708;43.612;1.568;2022-12-18T03:26:16;33.75;;;15.48;;
67902;SDS011;54708;43.612;1.568;2022-12-18T03:28:46;28.45;;;15.98;;
67902;SDS011;54708;43.612;1.568;2022-12-18T03:31:14;28.83;;;15.93;;
67902;SDS011;54708;43.612;1.568;2022-12-18T03:33:53;32.17;;;16.33;;
67902;SDS011;54708;43.612;1.568;2022-12-18T03:36:30;30.92;;;14.25;;
67902;SDS011;54708;43.612;1.568;2022-12-18T03:38:56;35.45;;;15.05;;
67902;SDS011;54708;43.612;1.568;2022-12-18T03:41:39;24.35;;;14.18;;
67902;SDS011;54708;43.612;1.568;2022-12-18T03:52:21;25.00;;;14.60;;
67902;SDS011;54708;43.612;1.568;2022-12-18T03:54:51;19.50;;;12.95;;
67902;SDS011;54708;43.612;1.568;2022-12-18T03:57:21;19.55;;;12.77;;
67902;SDS011;54708;43.612;1.568;2022-12-18T03:59:49;28.00;;;13.13;;
67902;SDS011;54708;43.612;1.568;2022-12-18T04:02:18;18.73;;;12.35;;
67902;SDS011;54708;43.612;1.568;2022-12-18T04:04:43;20.25;;;14.23;;
67902;SDS011;54708;43.612;1.568;2022-12-18T04:07:10;21.73;;;14.25;;
67902;SDS011;54708;43.612;1.568;2022-12-18T04:09:37;18.50;;;13.13;;
67902;SDS011;54708;43.612;1.568;2022-12-18T04:12:04;15.63;;;11.35;;
67902;SDS011;54708;43.612;1.568;2022-12-18T04:14:29;17.92;;;12.23;;
67902;SDS011;54708;43.612;1.568;2022-12-18T04:17:00;17.80;;;12.68;;
67902;SDS011;54708;43.612;1.568;2022-12-18T04:19:26;18.48;;;12.55;;
67902;SDS011;54708;43.612;1.568;2022-12-18T04:21:51;18.58;;;12.07;;
67902;SDS011;54708;43.612;1.568;2022-12-18T04:24:17;20.00;;;12.68;;
67902;SDS011;54708;43.612;1.568;2022-12-18T04:26:42;16.42;;;11.63;;
67902;SDS011;54708;43.612;1.568;2022-12-18T04:29:07;43.35;;;13.27;;
67902;SDS011;54708;43.612;1.568;2022-12-18T04:31:33;14.30;;;11.07;;
67902;SDS011;54708;43.612;1.568;2022-12-18T04:33:58;15.75;;;11.63;;
67902;SDS011;54708;43.612;1.568;2022-12-18T04:36:23;17.27;;;11.63;;
67902;SDS011;54708;43.612;1.568;2022-12-18T04:38:52;17.83;;;10.95;;
67902;SDS011;54708;43.612;1.568;2022-12-18T04:41:17;16.35;;;11.95;;
67902;SDS011;54708;43.612;1.568;2022-12-18T04:43:43;19.30;;;11.45;;
67902;SDS011;54708;43.612;1.568;2022-12-18T04:46:08;17.98;;;10.73;;
67902;SDS011;54708;43.612;1.568;2022-12-18T04:48:34;15.77;;;11.18;;
67902;SDS011;54708;43.612;1.568;2022-12-18T04:51:00;19.38;;;12.38;;
67902;SDS011;54708;43.612;1.568;2022-12-18T04:53:25;15.90;;;10.43;;
67902;SDS011;54708;43.612;1.568;2022-12-18T04:55:51;16.15;;;10.82;;
67902;SDS011;54708;43.612;1.568;2022-12-18T04:58:29;15.85;;;10.75;;
67902;SDS011;54708;43.612;1.568;2022-12-18T05:00:54;19.42;;;12.32;;
67902;SDS011;54708;43.612;1.568;2022-12-18T05:03:20;15.25;;;10.23;;
67902;SDS011;54708;43.612;1.568;2022-12-18T05:05:45;19.70;;;11.43;;
67902;SDS011;54708;43.612;1.568;2022-12-18T05:08:14;19.05;;;11.82;;
67902;SDS011;54708;43.612;1.568;2022-12-18T05:10:40;16.48;;;11.38;;
67902;SDS011;54708;43.612;1.568;2022-12-18T05:13:05;16.35;;;11.50;;
67902;SDS011;54708;43.612;1.568;2022-12-18T05:15:31;16.98;;;11.38;;
67902;SDS011;54708;43.612;1.568;2022-12-18T05:17:57;14.88;;;10.65;;
67902;SDS011;54708;43.612;1.568;2022-12-18T05:20:24;15.23;;;11.43;;
67902;SDS011;54708;43.612;1.568;2022-12-18T05:22:50;17.15;;;10.90;;
67902;SDS011;54708;43.612;1.568;2022-12-18T05:25:16;16.60;;;12.15;;
67902;SDS011;54708;43.612;1.568;2022-12-18T05:27:41;17.48;;;12.30;;
67902;SDS011;54708;43.612;1.568;2022-12-18T05:30:07;18.02;;;11.93;;
67902;SDS011;54708;43.612;1.568;2022-12-18T05:32:33;14.55;;;10.73;;
67902;SDS011;54708;43.612;1.568;2022-12-18T05:34:58;16.80;;;11.82;;
67902;SDS011;54708;43.612;1.568;2022-12-18T05:37:24;15.18;;;11.05;;
67902;SDS011;54708;43.612;1.568;2022-12-18T05:39:49;14.40;;;11.23;;
67902;SDS011;54708;43.612;1.568;2022-12-18T05:42:15;17.55;;;12.15;;
67902;SDS011;54708;43.612;1.568;2022-12-18T05:44:40;16.63;;;11.57;;
67902;SDS011;54708;43.612;1.568;2022-12-18T05:47:05;21.15;;;12.55;;
67902;SDS011;54708;43.612;1.568;2022-12-18T05:49:31;17.48;;;12.18;;
67902;SDS011;54708;43.612;1.568;2022-12-18T05:51:56;17.05;;;12.45;;
67902;SDS011;54708;43.612;1.568;2022-12-18T05:54:22;17.05;;;12.52;;
67902;SDS011;54708;43.612;1.568;2022-12-18T05:56:47;23.42;;;15.75;;
67902;SDS011;54708;43.612;1.568;2022-12-18T05:59:12;24.80;;;17.98;;
67902;SDS011;54708;43.612;1.568;2022-12-18T06:01:38;19.73;;;16.05;;
67902;SDS011;54708;43.612;1.568;2022-12-18T06:04:03;22.42;;;15.38;;
67902;SDS011;54708;43.612;1.568;2022-12-18T06:06:29;32.20;;;20.33;;
67902;SDS011;54708;43.612;1.568;2022-12-18T06:08:55;25.88;;;16.75;;
67902;SDS011;54708;43.612;1.568;2022-12-18T06:11:22;20.02;;;13.88;;
67902;SDS011;54708;43.612;1.568;2022-12-18T06:13:49;20.88;;;13.23;;
67902;SDS011;54708;43.612;1.568;2022-12-18T06:16:16;22.20;;;14.95;;
67902;SDS011;54708;43.612;1.568;2022-12-18T06:18:41;18.55;;;13.60;;
67902;SDS011;54708;43.612;1.568;2022-12-18T06:21:07;22.58;;;13.68;;
67902;SDS011;54708;43.612;1.568;2022-12-18T06:23:32;17.73;;;12.27;;
67902;SDS011;54708;43.612;1.568;2022-12-18T06:25:57;18.90;;;12.23;;
67902;SDS011;54708;43.612;1.568;2022-12-18T06:28:23;16.52;;;13.57;;
67902;SDS011;54708;43.612;1.568;2022-12-18T06:30:48;16.08;;;12.02;;
67902;SDS011;54708;43.612;1.568;2022-12-18T06:33:15;21.20;;;12.73;;
67902;SDS011;54708;43.612;1.568;2022-12-18T06:35:41;15.77;;;12.32;;
67902;SDS011;54708;43.612;1.568;2022-12-18T06:38:07;18.45;;;12.68;;
67902;SDS011;54708;43.612;1.568;2022-12-18T06:40:32;17.20;;;11.85;;
67902;SDS011;54708;43.612;1.568;2022-12-18T06:42:57;21.50;;;15.48;;
67902;SDS011;54708;43.612;1.568;2022-12-18T06:45:23;21.60;;;13.80;;
67902;SDS011;54708;43.612;1.568;2022-12-18T06:47:49;21.58;;;14.02;;
67902;SDS011;54708;43.612;1.568;2022-12-18T06:50:14;24.73;;;16.50;;
67902;SDS011;54708;43.612;1.568;2022-12-18T06:52:40;30.30;;;16.75;;
67902;SDS011;54708;43.612;1.568;2022-12-18T06:55:06;22.58;;;14.20;;
67902;SDS011;54708;43.612;1.568;2022-12-18T06:57:33;18.95;;;13.82;;
67902;SDS011;54708;43.612;1.568;2022-12-18T06:59:58;22.40;;;13.80;;
67902;SDS011;54708;43.612;1.568;2022-12-18T07:02:23;18.95;;;12.20;;
67902;SDS011;54708;43.612;1.568;2022-12-18T07:04:49;22.42;;;13.95;;
67902;SDS011;54708;43.612;1.568;2022-12-18T07:07:14;19.70;;;12.20;;
67902;SDS011;54708;43.612;1.568;2022-12-18T07:09:39;20.60;;;12.85;;
67902;SDS011;54708;43.612;1.568;2022-12-18T07:12:05;18.40;;;11.55;;
67902;SDS011;54708;43.612;1.568;2022-12-18T07:14:31;19.10;;;12.93;;
67902;SDS011;54708;43.612;1.568;2022-12-18T07:16:57;18.73;;;14.18;;
67902;SDS011;54708;43.612;1.568;2022-12-18T07:19:22;18.67;;;13.23;;
67902;SDS011;54708;43.612;1.568;2022-12-18T07:21:47;19.63;;;13.40;;
67902;SDS011;54708;43.612;1.568;2022-12-18T07:24:15;20.00;;;13.35;;
67902;SDS011;54708;43.612;1.568;2022-12-18T07:26:40;19.70;;;13.15;;
67902;SDS011;54708;43.612;1.568;2022-12-18T07:29:05;22.05;;;13.43;;
67902;SDS011;54708;43.612;1.568;2022-12-18T07:31:31;20.85;;;13.55;;
67902;SDS011;54708;43.612;1.568;2022-12-18T07:33:56;19.30;;;12.52;;
67902;SDS011;54708;43.612;1.568;2022-12-18T07:36:22;21.70;;;12.05;;
67902;SDS011;54708;43.612;1.568;2022-12-18T07:38:47;17.00;;;11.38;;
67902;SDS011;54708;43.612;1.568;2022-12-18T07:41:13;18.80;;;11.85;;
67902;SDS011;54708;43.612;1.568;2022-12-18T07:43:39;18.90;;;13.10;;
67902;SDS011;54708;43.612;1.568;2022-12-18T07:46:06;15.07;;;10.88;;
67902;SDS011;54708;43.612;1.568;2022-12-18T07:48:32;19.60;;;12.85;;
67902;SDS011;54708;43.612;1.568;2022-12-18T07:51:01;16.08;;;12.20;;
67902;SDS011;54708;43.612;1.568;2022-12-18T07:53:29;19.30;;;11.93;;
67902;SDS011;54708;43.612;1.568;2022-12-18T07:55:55;16.92;;;11.27;;
67902;SDS011;54708;43.612;1.568;2022-12-18T07:58:21;20.90;;;11.95;;
67902;SDS011;54708;43.612;1.568;2022-12-18T08:00:47;20.58;;;13.80;;
67902;SDS011;54708;43.612;1.568;2022-12-18T08:03:12;16.63;;;12.30;;
67902;SDS011;54708;43.612;1.568;2022-12-18T08:05:38;18.77;;;12.82;;
67902;SDS011;54708;43.612;1.568;2022-12-18T08:08:04;17.02;;;12.23;;
67902;SDS011;54708;43.612;1.568;2022-12-18T08:10:29;21.85;;;13.50;;
67902;SDS011;54708;43.612;1.568;2022-12-18T08:12:55;19.98;;;13.68;;
67902;SDS011;54708;43.612;1.568;2022-12-18T08:15:20;19.60;;;13.90;;
67902;SDS011;54708;43.612;1.568;2022-12-18T08:17:46;14.95;;;11.88;;
67902;SDS011;54708;43.612;1.568;2022-12-18T08:20:11;17.92;;;11.80;;
67902;SDS011;54708;43.612;1.568;2022-12-18T08:22:36;21.02;;;13.93;;
67902;SDS011;54708;43.612;1.568;2022-12-18T08:25:02;17.48;;;12.55;;
67902;SDS011;54708;43.612;1.568;2022-12-18T08:27:28;17.63;;;11.38;;
67902;SDS011;54708;43.612;1.568;2022-12-18T08:29:54;15.75;;;11.55;;
67902;SDS011;54708;43.612;1.568;2022-12-18T08:32:20;17.15;;;12.32;;
67902;SDS011;54708;43.612;1.568;2022-12-18T08:34:45;15.45;;;9.85;;
67902;SDS011;54708;43.612;1.568;2022-12-18T08:37:10;22.65;;;14.43;;
67902;SDS011;54708;43.612;1.568;2022-12-18T08:39:36;32.83;;;19.80;;
67902;SDS011;54708;43.612;1.568;2022-12-18T08:42:01;26.90;;;18.17;;
67902;SDS011;54708;43.612;1.568;2022-12-18T08:44:45;20.55;;;12.25;;
67902;SDS011;54708;43.612;1.568;2022-12-18T08:47:11;17.23;;;11.23;;
67902;SDS011;54708;43.612;1.568;2022-12-18T08:49:36;15.18;;;10.95;;
67902;SDS011;54708;43.612;1.568;2022-12-18T08:52:02;13.90;;;10.05;;
67902;SDS011;54708;43.612;1.568;2022-12-18T08:54:28;12.18;;;9.10;;
67902;SDS011;54708;43.612;1.568;2022-12-18T08:56:53;12.10;;;9.82;;
67902;SDS011;54708;43.612;1.568;2022-12-18T08:59:19;14.63;;;10.43;;
67902;SDS011;54708;43.612;1.568;2022-12-18T09:01:44;11.85;;;8.50;;
67902;SDS011;54708;43.612;1.568;2022-12-18T09:04:10;12.20;;;7.13;;
67902;SDS011;54708;43.612;1.568;2022-12-18T09:06:36;11.35;;;7.63;;
67902;SDS011;54708;43.612;1.568;2022-12-18T09:09:02;14.05;;;8.93;;
67902;SDS011;54708;43.612;1.568;2022-12-18T09:11:29;8.73;;;6.75;;
67902;SDS011;54708;43.612;1.568;2022-12-18T09:13:55;11.48;;;8.05;;
67902;SDS011;54708;43.612;1.568;2022-12-18T09:16:21;7.55;;;6.63;;
67902;SDS011;54708;43.612;1.568;2022-12-18T09:18:48;7.80;;;6.32;;
67902;SDS011;54708;43.612;1.568;2022-12-18T09:21:17;8.63;;;6.63;;
67902;SDS011;54708;43.612;1.568;2022-12-18T09:23:48;7.57;;;6.78;;
67902;SDS011;54708;43.612;1.568;2022-12-18T09:26:14;6.75;;;6.00;;
67902;SDS011;54708;43.612;1.568;2022-12-18T09:28:39;9.80;;;6.00;;
67902;SDS011;54708;43.612;1.568;2022-12-18T09:31:06;7.65;;;6.20;;
67902;SDS011;54708;43.612;1.568;2022-12-18T09:33:33;6.45;;;5.10;;
67902;SDS011;54708;43.612;1.568;2022-12-18T09:36:03;8.23;;;4.90;;
67902;SDS011;54708;43.612;1.568;2022-12-18T09:38:30;10.02;;;5.95;;
67902;SDS011;54708;43.612;1.568;2022-12-18T09:40:57;10.25;;;6.03;;
67902;SDS011;54708;43.612;1.568;2022-12-18T09:43:26;8.57;;;6.05;;
67902;SDS011;54708;43.612;1.568;2022-12-18T09:46:14;7.95;;;5.15;;
67902;SDS011;54708;43.612;1.568;2022-12-18T09:48:42;8.27;;;5.20;;
67902;SDS011;54708;43.612;1.568;2022-12-18T09:51:18;8.10;;;5.80;;
67902;SDS011;54708;43.612;1.568;2022-12-18T09:53:53;8.35;;;5.57;;
67902;SDS011;54708;43.612;1.568;2022-12-18T09:56:22;6.28;;;5.10;;
67902;SDS011;54708;43.612;1.568;2022-12-18T09:58:54;6.05;;;4.78;;
67902;SDS011;54708;43.612;1.568;2022-12-18T10:01:22;7.07;;;4.22;;
67902;SDS011;54708;43.612;1.568;2022-12-18T10:03:49;6.25;;;4.38;;
67902;SDS011;54708;43.612;1.568;2022-12-18T10:20:20;5.10;;;3.85;;
67902;SDS011;54708;43.612;1.568;2022-12-18T10:25:28;6.57;;;4.20;;
67902;SDS011;54708;43.612;1.568;2022-12-18T10:28:07;9.35;;;4.10;;
67902;SDS011;54708;43.612;1.568;2022-12-18T10:30:37;5.05;;;4.30;;
67902;SDS011;54708;43.612;1.568;2022-12-18T10:33:03;4.63;;;4.07;;
67902;SDS011;54708;43.612;1.568;2022-12-18T10:35:29;5.28;;;3.83;;
67902;SDS011;54708;43.612;1.568;2022-12-18T10:40:28;3.67;;;3.38;;
67902;SDS011;54708;43.612;1.568;2022-12-18T10:43:13;4.32;;;3.88;;
67902;SDS011;54708;43.612;1.568;2022-12-18T10:45:40;3.65;;;3.13;;
67902;SDS011;54708;43.612;1.568;2022-12-18T10:48:19;3.80;;;3.33;;
67902;SDS011;54708;43.612;1.568;2022-12-18T10:50:47;3.83;;;2.97;;
67902;SDS011;54708;43.612;1.568;2022-12-18T10:53:18;3.65;;;3.35;;
67902;SDS011;54708;43.612;1.568;2022-12-18T10:55:45;5.70;;;3.63;;
67902;SDS011;54708;43.612;1.568;2022-12-18T11:01:14;4.25;;;3.17;;
67902;SDS011;54708;43.612;1.568;2022-12-18T11:03:45;3.65;;;3.35;;
67902;SDS011;54708;43.612;1.568;2022-12-18T11:06:21;3.95;;;3.45;;
67902;SDS011;54708;43.612;1.568;2022-12-18T11:09:06;5.65;;;3.45;;
67902;SDS011;54708;43.612;1.568;2022-12-18T11:11:57;4.25;;;3.85;;
67902;SDS011;54708;43.612;1.568;2022-12-18T11:14:43;6.90;;;4.35;;
67902;SDS011;54708;43.612;1.568;2022-12-18T11:19:43;6.35;;;3.92;;
67902;SDS011;54708;43.612;1.568;2022-12-18T11:22:23;5.10;;;3.53;;
67902;SDS011;54708;43.612;1.568;2022-12-18T11:24:59;5.57;;;4.03;;
67902;SDS011;54708;43.612;1.568;2022-12-18T11:27:27;7.28;;;3.20;;
67902;SDS011;54708;43.612;1.568;2022-12-18T11:30:06;6.80;;;3.92;;
67902;SDS011;54708;43.612;1.568;2022-12-18T11:32:56;7.78;;;4.38;;
67902;SDS011;54708;43.612;1.568;2022-12-18T11:35:55;5.18;;;3.97;;
67902;SDS011;54708;43.612;1.568;2022-12-18T11:38:35;5.75;;;3.75;;
67902;SDS011;54708;43.612;1.568;2022-12-18T11:44:01;3.95;;;2.90;;
67902;SDS011;54708;43.612;1.568;2022-12-18T11:46:38;3.95;;;3.03;;
67902;SDS011;54708;43.612;1.568;2022-12-18T11:49:25;4.07;;;3.67;;
67902;SDS011;54708;43.612;1.568;2022-12-18T11:51:55;3.90;;;3.45;;
67902;SDS011;54708;43.612;1.568;2022-12-18T11:54:42;3.63;;;3.30;;
67902;SDS011;54708;43.612;1.568;2022-12-18T11:57:13;5.20;;;3.70;;
67902;SDS011;54708;43.612;1.568;2022-12-18T12:08:02;4.03;;;3.13;;
67902;SDS011;54708;43.612;1.568;2022-12-18T12:23:58;4.03;;;3.25;;
67902;SDS011;54708;43.612;1.568;2022-12-18T12:34:34;3.83;;;3.13;;
67902;SDS011;54708;43.612;1.568;2022-12-18T12:37:23;5.40;;;3.65;;
67902;SDS011;54708;43.612;1.568;2022-12-18T12:39:55;6.35;;;3.58;;
67902;SDS011;54708;43.612;1.568;2022-12-18T12:42:31;5.72;;;3.53;;
67902;SDS011;54708;43.612;1.568;2022-12-18T12:45:26;5.80;;;3.70;;
67902;SDS011;54708;43.612;1.568;2022-12-18T12:47:54;5.65;;;3.50;;
67902;SDS011;54708;43.612;1.568;2022-12-18T12:50:20;6.13;;;3.67;;
67902;SDS011;54708;43.612;1.568;2022-12-18T12:52:47;4.40;;;3.35;;
67902;SDS011;54708;43.612;1.568;2022-12-18T12:55:23;6.88;;;3.28;;
67902;SDS011;54708;43.612;1.568;2022-12-18T13:00:25;8.40;;;4.97;;
67902;SDS011;54708;43.612;1.568;2022-12-18T13:08:02;4.10;;;3.35;;
67902;SDS011;54708;43.612;1.568;2022-12-18T13:10:33;5.25;;;3.70;;
67902;SDS011;54708;43.612;1.568;2022-12-18T13:13:09;7.22;;;4.47;;
67902;SDS011;54708;43.612;1.568;2022-12-18T13:16:03;5.43;;;3.50;;
67902;SDS011;54708;43.612;1.568;2022-12-18T13:18:29;4.65;;;3.30;;
67902;SDS011;54708;43.612;1.568;2022-12-18T13:28:49;6.13;;;3.92;;
67902;SDS011;54708;43.612;1.568;2022-12-18T13:34:19;4.20;;;3.58;;
67902;SDS011;54708;43.612;1.568;2022-12-18T13:36:45;4.22;;;3.33;;
67902;SDS011;54708;43.612;1.568;2022-12-18T13:41:42;4.57;;;3.40;;
67902;SDS011;54708;43.612;1.568;2022-12-18T13:44:13;4.45;;;3.33;;
67902;SDS011;54708;43.612;1.568;2022-12-18T13:46:45;4.63;;;4.22;;
67902;SDS011;54708;43.612;1.568;2022-12-18T13:51:39;6.97;;;4.18;;
67902;SDS011;54708;43.612;1.568;2022-12-18T13:56:49;8.98;;;5.65;;
67902;SDS011;54708;43.612;1.568;2022-12-18T14:01:47;3.20;;;2.88;;
67902;SDS011;54708;43.612;1.568;2022-12-18T14:04:27;5.63;;;3.53;;
67902;SDS011;54708;43.612;1.568;2022-12-18T14:07:13;3.80;;;2.75;;
67902;SDS011;54708;43.612;1.568;2022-12-18T14:09:45;5.15;;;3.97;;
67902;SDS011;54708;43.612;1.568;2022-12-18T14:12:34;5.32;;;2.85;;
67902;SDS011;54708;43.612;1.568;2022-12-18T14:20:54;2.72;;;2.53;;
67902;SDS011;54708;43.612;1.568;2022-12-18T14:23:36;5.05;;;3.20;;
67902;SDS011;54708;43.612;1.568;2022-12-18T14:28:53;5.72;;;3.65;;
67902;SDS011;54708;43.612;1.568;2022-12-18T14:31:26;4.03;;;3.05;;
67902;SDS011;54708;43.612;1.568;2022-12-18T14:33:53;3.00;;;2.70;;
67902;SDS011;54708;43.612;1.568;2022-12-18T14:36:20;6.35;;;2.95;;
67902;SDS011;54708;43.612;1.568;2022-12-18T14:38:51;3.55;;;2.67;;
67902;SDS011;54708;43.612;1.568;2022-12-18T14:41:21;3.20;;;2.90;;
67902;SDS011;54708;43.612;1.568;2022-12-18T14:43:48;3.58;;;2.80;;
67902;SDS011;54708;43.612;1.568;2022-12-18T14:49:14;4.25;;;3.90;;
67902;SDS011;54708;43.612;1.568;2022-12-18T14:52:04;5.45;;;3.72;;
67902;SDS011;54708;43.612;1.568;2022-12-18T14:54:31;5.50;;;3.40;;
67902;SDS011;54708;43.612;1.568;2022-12-18T14:59:43;5.53;;;3.55;;
67902;SDS011;54708;43.612;1.568;2022-12-18T15:04:59;4.78;;;3.05;;
67902;SDS011;54708;43.612;1.568;2022-12-18T15:07:45;4.43;;;3.53;;
67902;SDS011;54708;43.612;1.568;2022-12-18T15:10:33;4.72;;;3.25;;
67902;SDS011;54708;43.612;1.568;2022-12-18T15:25:58;5.50;;;3.00;;
67902;SDS011;54708;43.612;1.568;2022-12-18T15:28:32;5.82;;;3.35;;
67902;SDS011;54708;43.612;1.568;2022-12-18T15:33:31;5.97;;;3.13;;
67902;SDS011;54708;43.612;1.568;2022-12-18T15:35:59;3.15;;;2.88;;
67902;SDS011;54708;43.612;1.568;2022-12-18T15:38:26;7.18;;;3.53;;
67902;SDS011;54708;43.612;1.568;2022-12-18T15:40:52;6.47;;;3.20;;
67902;SDS011;54708;43.612;1.568;2022-12-18T15:43:20;3.92;;;2.90;;
67902;SDS011;54708;43.612;1.568;2022-12-18T15:46:02;7.22;;;2.88;;
67902;SDS011;54708;43.612;1.568;2022-12-18T15:48:29;3.75;;;2.72;;
67902;SDS011;54708;43.612;1.568;2022-12-18T15:50:56;4.72;;;2.97;;
67902;SDS011;54708;43.612;1.568;2022-12-18T15:53:22;5.60;;;3.05;;
67902;SDS011;54708;43.612;1.568;2022-12-18T15:55:48;5.45;;;3.28;;
67902;SDS011;54708;43.612;1.568;2022-12-18T15:58:32;3.53;;;2.78;;
67902;SDS011;54708;43.612;1.568;2022-12-18T16:00:58;4.22;;;3.03;;
67902;SDS011;54708;43.612;1.568;2022-12-18T16:03:24;4.45;;;3.70;;
67902;SDS011;54708;43.612;1.568;2022-12-18T16:05:49;4.28;;;3.88;;
67902;SDS011;54708;43.612;1.568;2022-12-18T16:08:15;6.88;;;3.72;;
67902;SDS011;54708;43.612;1.568;2022-12-18T16:10:40;5.30;;;3.25;;
67902;SDS011;54708;43.612;1.568;2022-12-18T16:13:07;7.25;;;3.50;;
67902;SDS011;54708;43.612;1.568;2022-12-18T16:15:35;14.23;;;8.15;;
67902;SDS011;54708;43.612;1.568;2022-12-18T16:18:00;10.57;;;5.72;;
67902;SDS011;54708;43.612;1.568;2022-12-18T16:20:26;9.50;;;6.13;;
67902;SDS011;54708;43.612;1.568;2022-12-18T16:22:51;6.72;;;3.47;;
67902;SDS011;54708;43.612;1.568;2022-12-18T16:25:22;6.95;;;4.03;;
67902;SDS011;54708;43.612;1.568;2022-12-18T16:27:49;5.13;;;3.30;;
67902;SDS011;54708;43.612;1.568;2022-12-18T16:30:16;10.20;;;4.80;;
67902;SDS011;54708;43.612;1.568;2022-12-18T16:32:43;6.93;;;4.20;;
67902;SDS011;54708;43.612;1.568;2022-12-18T16:35:09;7.32;;;3.83;;
67902;SDS011;54708;43.612;1.568;2022-12-18T16:37:36;5.15;;;3.65;;
67902;SDS011;54708;43.612;1.568;2022-12-18T16:40:01;7.18;;;4.32;;
67902;SDS011;54708;43.612;1.568;2022-12-18T16:42:27;4.82;;;3.30;;
67902;SDS011;54708;43.612;1.568;2022-12-18T16:44:52;6.13;;;4.00;;
67902;SDS011;54708;43.612;1.568;2022-12-18T16:47:18;5.97;;;3.35;;
67902;SDS011;54708;43.612;1.568;2022-12-18T16:49:44;5.43;;;3.47;;
67902;SDS011;54708;43.612;1.568;2022-12-18T16:52:10;6.07;;;3.53;;
67902;SDS011;54708;43.612;1.568;2022-12-18T16:54:35;6.82;;;3.75;;
67902;SDS011;54708;43.612;1.568;2022-12-18T16:57:01;10.48;;;3.60;;
67902;SDS011;54708;43.612;1.568;2022-12-18T16:59:27;5.50;;;3.17;;
67902;SDS011;54708;43.612;1.568;2022-12-18T17:01:53;7.18;;;4.30;;
67902;SDS011;54708;43.612;1.568;2022-12-18T17:04:20;3.95;;;3.58;;
67902;SDS011;54708;43.612;1.568;2022-12-18T17:06:45;7.78;;;3.78;;
67902;SDS011;54708;43.612;1.568;2022-12-18T17:09:16;8.93;;;5.45;;
67902;SDS011;54708;43.612;1.568;2022-12-18T17:11:42;15.02;;;7.50;;
67902;SDS011;54708;43.612;1.568;2022-12-18T17:14:09;11.25;;;4.60;;